Terminal Aerodrome Forecast
Issued by NWS

Home | Current Version | Previous Version | Text Only | Print | Product List | Glossary On
Versions: 1 2 3 4 5 6 7 8 9 10 11 12 13 14 15 16 17
761
FTUS43 KIND 240655 RRA
TAFLAF
TAF
KLAF 240655Z 2407/2506 35004KT P6SM VCSH BKN100
     FM241000 VRB03KT P6SM VCSH OVC030
     FM241800 36006KT 4SM -SHRA VCTS OVC030CB
     FM242200 35006KT 2SM -SHRA VCTS OVC015CB
     FM250000 34007KT 1 1/2SM -SHRA OVC010
      AMD LTD TO CLD VIS AND WIND TIL 241300=

USA.gov is the U.S. government's official web portal to all federal, state and local government web resources and services.